createdAt,value
2024-02-23T00:01:31.650Z,8.03
2024-02-23T00:06:35.456Z,8.05
2024-02-23T00:11:46.197Z,8.08
2024-02-23T00:16:49.059Z,8.09
2024-02-23T00:21:52.628Z,8.07
2024-02-23T00:26:55.486Z,8.05
2024-02-23T00:31:58.136Z,8.03
2024-02-23T00:37:00.635Z,8.04
2024-02-23T00:42:03.142Z,8.04
2024-02-23T00:47:08.071Z,8.04
2024-02-23T00:52:10.869Z,8.03
2024-02-23T00:57:13.306Z,8.05
2024-02-23T01:02:15.862Z,8.07
2024-02-23T01:07:18.345Z,8.08
2024-02-23T01:12:21.034Z,8.07
2024-02-23T01:17:23.594Z,8.09
2024-02-23T01:22:26.029Z,8.10
2024-02-23T01:27:32.399Z,8.10
2024-02-23T01:32:38.565Z,8.11
2024-02-23T01:37:41.308Z,8.07
2024-02-23T01:42:43.734Z,8.04
2024-02-23T01:47:46.331Z,7.99
2024-02-23T01:52:49.642Z,7.96
2024-02-23T01:57:52.273Z,7.96
2024-02-23T02:02:55.310Z,8.00
2024-02-23T02:08:01.629Z,8.02
2024-02-23T02:13:05.634Z,8.06
2024-02-23T02:18:08.120Z,8.11
2024-02-23T02:23:11.905Z,8.17
2024-02-23T02:28:14.939Z,8.19
2024-02-23T02:33:17.647Z,8.18
2024-02-23T02:38:20.260Z,8.16
2024-02-23T02:43:22.745Z,8.15
2024-02-23T02:48:25.950Z,8.14
2024-02-23T02:53:28.464Z,8.13
2024-02-23T02:58:31.293Z,8.10
2024-02-23T03:03:33.809Z,8.09
2024-02-23T03:08:36.329Z,8.09
2024-02-23T03:13:39.310Z,8.09
2024-02-23T03:18:41.723Z,8.10
2024-02-23T03:23:44.210Z,8.12
2024-02-23T03:28:46.696Z,8.13
2024-02-23T03:33:49.170Z,8.17
2024-02-23T03:38:51.612Z,8.21
2024-02-23T03:43:54.013Z,8.19
2024-02-23T03:48:57.492Z,8.16
2024-02-23T03:53:59.975Z,8.14
2024-02-23T03:59:02.441Z,8.10
2024-02-23T04:04:06.077Z,8.07
2024-02-23T04:09:09.622Z,8.05
2024-02-23T04:14:12.138Z,8.01
2024-02-23T04:19:15.159Z,7.94
2024-02-23T04:24:17.604Z,7.92
2024-02-23T04:29:20.071Z,7.92
2024-02-23T04:34:22.624Z,7.94
2024-02-23T04:39:25.183Z,7.96
2024-02-23T04:44:27.603Z,7.98
2024-02-23T04:49:30.067Z,8.00
2024-02-23T04:54:32.544Z,8.01
2024-02-23T04:59:35.092Z,8.03
2024-02-23T05:04:37.967Z,8.04
2024-02-23T05:09:41.734Z,8.03
2024-02-23T05:14:44.261Z,8.02
2024-02-23T05:19:47.690Z,7.98
2024-02-23T05:24:50.143Z,7.94
2024-02-23T05:29:52.572Z,7.92
2024-02-23T05:34:55.263Z,7.93
2024-02-23T05:40:00.688Z,7.95
2024-02-23T05:45:05.520Z,8.01
2024-02-23T05:50:11.244Z,8.05
2024-02-23T05:55:13.932Z,8.08
2024-02-23T06:00:19.906Z,8.12
2024-02-23T06:05:22.401Z,8.18
2024-02-23T06:10:25.807Z,8.22
2024-02-23T06:15:28.461Z,8.26
2024-02-23T06:20:30.981Z,8.30
2024-02-23T06:25:33.413Z,8.36
2024-02-23T06:30:35.964Z,8.41
2024-02-23T06:35:38.557Z,8.45
2024-02-23T06:40:48.789Z,8.49
2024-02-23T06:45:55.491Z,8.56
2024-02-23T06:50:58.708Z,8.63
2024-02-23T06:56:01.844Z,8.69
2024-02-23T07:01:06.861Z,8.77
2024-02-23T07:06:11.182Z,8.85
2024-02-23T07:11:13.839Z,8.91
2024-02-23T07:16:16.436Z,8.95
2024-02-23T07:21:19.658Z,8.99
2024-02-23T07:26:23.256Z,9.03
2024-02-23T07:31:25.830Z,9.07
2024-02-23T07:36:28.372Z,9.12
2024-02-23T07:41:30.885Z,9.19
2024-02-23T07:46:33.281Z,9.29
2024-02-23T07:51:35.801Z,9.42
2024-02-23T07:56:39.670Z,9.54
2024-02-23T08:01:43.206Z,9.64
2024-02-23T08:06:45.665Z,9.74
2024-02-23T08:11:48.608Z,9.88
2024-02-23T08:16:51.249Z,10.04
2024-02-23T08:21:54.030Z,10.17
2024-02-23T08:26:56.477Z,10.28
2024-02-23T08:31:58.940Z,10.36
2024-02-23T08:37:02.695Z,10.43
2024-02-23T08:42:05.458Z,10.52
2024-02-23T08:47:10.682Z,10.58
2024-02-23T08:52:13.105Z,10.66
2024-02-23T08:57:21.705Z,10.76
2024-02-23T09:02:25.167Z,10.86
2024-02-23T09:07:27.650Z,10.89
2024-02-23T09:12:30.404Z,10.91
2024-02-23T09:17:32.924Z,10.93
2024-02-23T09:22:37.741Z,10.93
2024-02-23T09:27:44.239Z,10.95
2024-02-23T09:32:47.089Z,10.97
2024-02-23T09:37:49.631Z,11.00
2024-02-23T09:42:58.139Z,11.07
2024-02-23T09:48:01.821Z,11.16
2024-02-23T09:53:05.911Z,11.25
2024-02-23T09:58:10.939Z,11.38
2024-02-23T10:03:13.533Z,11.54
2024-02-23T10:08:16.247Z,11.68
2024-02-23T10:13:22.872Z,11.77
2024-02-23T10:18:28.464Z,11.86
2024-02-23T10:23:38.044Z,11.92
2024-02-23T10:28:41.275Z,11.89
2024-02-23T10:33:45.716Z,11.85
2024-02-23T10:38:49.658Z,11.85
2024-02-23T10:43:53.775Z,11.87
2024-02-23T10:48:56.612Z,11.91
2024-02-23T10:54:00.947Z,11.95
2024-02-23T10:59:03.968Z,11.96
2024-02-23T11:04:08.690Z,11.91
2024-02-23T11:09:14.279Z,11.83
2024-02-23T11:14:16.686Z,11.75
2024-02-23T11:19:20.109Z,11.67
2024-02-23T11:24:26.964Z,11.64
2024-02-23T11:29:33.678Z,11.59
2024-02-23T11:34:36.182Z,11.55
2024-02-23T11:39:40.273Z,11.56
2024-02-23T11:44:42.809Z,11.65
2024-02-23T11:49:45.432Z,11.74
2024-02-23T11:54:47.965Z,11.90
2024-02-23T11:59:51.883Z,11.94
2024-02-23T12:04:54.713Z,11.90
2024-02-23T12:09:58.082Z,11.94
2024-02-23T12:15:01.093Z,11.97
2024-02-23T12:20:04.481Z,11.83
2024-02-23T12:25:07.464Z,11.67
2024-02-23T12:30:19.416Z,11.57
2024-02-23T12:35:22.488Z,11.48
2024-02-23T12:40:25.947Z,11.43
2024-02-23T12:45:28.460Z,11.41
2024-02-23T12:50:32.338Z,11.44
2024-02-23T12:55:35.344Z,11.44
2024-02-23T13:00:37.839Z,11.42
2024-02-23T13:05:40.695Z,11.36
2024-02-23T13:10:43.196Z,11.28
2024-02-23T13:15:46.886Z,11.21
2024-02-23T13:20:49.786Z,11.14
2024-02-23T13:25:52.324Z,11.09
2024-02-23T13:30:54.880Z,11.07
2024-02-23T13:35:57.435Z,11.04
2024-02-23T13:40:59.954Z,10.98
2024-02-23T13:46:05.249Z,10.96
2024-02-23T13:51:08.436Z,10.94
2024-02-23T13:56:11.579Z,10.87
2024-02-23T14:01:14.021Z,10.80
2024-02-23T14:06:16.533Z,10.75
2024-02-23T14:11:19.792Z,10.75
2024-02-23T14:16:24.437Z,10.75
2024-02-23T14:21:27.586Z,10.75
2024-02-23T14:26:30.089Z,10.78
2024-02-23T14:31:33.328Z,10.84
2024-02-23T14:36:35.938Z,10.90
2024-02-23T14:41:38.504Z,10.91
2024-02-23T14:46:43.842Z,10.86
2024-02-23T14:51:48.431Z,10.77
2024-02-23T14:56:50.869Z,10.65
2024-02-23T15:01:53.423Z,10.51
2024-02-23T15:06:56.847Z,10.37
2024-02-23T15:11:59.511Z,10.23
2024-02-23T15:17:02.158Z,10.12
2024-02-23T15:22:06.285Z,10.04
2024-02-23T15:27:10.133Z,9.92
2024-02-23T15:32:12.895Z,9.79
2024-02-23T15:37:15.493Z,9.66
2024-02-23T15:42:21.151Z,9.56
2024-02-23T15:47:23.974Z,9.50
2024-02-23T15:52:27.234Z,9.44
2024-02-23T15:57:29.859Z,9.38
2024-02-23T16:02:32.628Z,9.33
2024-02-23T16:07:35.261Z,9.28
2024-02-23T16:12:38.006Z,9.20
2024-02-23T16:17:40.560Z,9.13
2024-02-23T16:22:44.798Z,9.04
2024-02-23T16:27:47.533Z,8.95
2024-02-23T16:32:50.555Z,8.86
2024-02-23T16:37:53.645Z,8.80
2024-02-23T16:42:57.660Z,8.73
2024-02-23T16:48:02.229Z,8.66
2024-02-23T16:53:04.989Z,8.60
2024-02-23T16:58:07.556Z,8.54
2024-02-23T17:03:10.127Z,8.48
2024-02-23T17:08:14.736Z,8.42
2024-02-23T17:13:17.475Z,8.35
2024-02-23T17:18:23.787Z,8.27
2024-02-23T17:23:26.384Z,8.22
2024-02-23T17:28:28.924Z,8.19
2024-02-23T17:33:31.493Z,8.16
2024-02-23T17:38:34.082Z,8.15
2024-02-23T17:43:36.915Z,8.14
2024-02-23T17:48:39.826Z,8.11
2024-02-23T17:53:42.489Z,8.04
2024-02-23T17:58:45.216Z,7.97
2024-02-23T18:03:48.408Z,7.94
2024-02-23T18:08:51.043Z,7.91
2024-02-23T18:13:56.282Z,7.93
2024-02-23T18:19:00.651Z,7.98
2024-02-23T18:24:03.494Z,8.01
2024-02-23T18:29:06.098Z,8.01
2024-02-23T18:34:08.971Z,7.99
2024-02-23T18:39:12.394Z,7.94
2024-02-23T18:44:14.951Z,7.86
2024-02-23T18:49:17.477Z,7.73
2024-02-23T18:54:20.024Z,7.60
2024-02-23T18:59:22.868Z,7.46
2024-02-23T19:04:25.500Z,7.35
2024-02-23T19:09:30.554Z,7.28
2024-02-23T19:14:35.026Z,7.27
2024-02-23T19:19:37.646Z,7.26
2024-02-23T19:24:40.279Z,7.24
2024-02-23T19:29:42.737Z,7.21
2024-02-23T19:34:45.653Z,7.18
2024-02-23T19:39:48.171Z,7.13
2024-02-23T19:44:51.612Z,7.11
2024-02-23T19:49:56.353Z,7.09
2024-02-23T19:54:58.903Z,7.11
2024-02-23T20:00:04.554Z,7.16
2024-02-23T20:05:07.599Z,7.22
2024-02-23T20:10:10.668Z,7.29
2024-02-23T20:15:13.475Z,7.35
2024-02-23T20:20:19.401Z,7.39
2024-02-23T20:25:23.588Z,7.41
2024-02-23T20:30:28.233Z,7.41
2024-02-23T20:35:30.945Z,7.43
2024-02-23T20:40:33.475Z,7.42
2024-02-23T20:45:37.179Z,7.37
2024-02-23T20:50:39.780Z,7.35
2024-02-23T20:55:42.592Z,7.38
2024-02-23T21:00:45.118Z,7.44
2024-02-23T21:05:48.423Z,7.49
2024-02-23T21:10:51.297Z,7.53
2024-02-23T21:15:56.248Z,7.58
2024-02-23T21:21:04.342Z,7.67
2024-02-23T21:26:12.982Z,7.76
2024-02-23T21:31:21.960Z,7.81
2024-02-23T21:36:30.604Z,7.89
2024-02-23T21:41:39.524Z,7.98
2024-02-23T21:46:47.910Z,8.02
2024-02-23T21:51:56.478Z,7.99
2024-02-23T21:57:05.128Z,8.00
2024-02-23T22:02:13.769Z,8.05
2024-02-23T22:07:21.989Z,8.06
2024-02-23T22:12:32.141Z,8.04
2024-02-23T22:17:41.291Z,8.05
2024-02-23T22:22:49.806Z,8.05
2024-02-23T22:27:58.557Z,8.04
2024-02-23T22:33:09.434Z,8.02
2024-02-23T22:38:16.498Z,7.99
2024-02-23T22:43:24.788Z,7.96
2024-02-23T22:53:46.051Z,7.84
2024-02-23T22:58:54.543Z,7.80
2024-02-23T23:04:04.218Z,7.71
2024-02-23T23:09:12.780Z,7.61
2024-02-23T23:14:24.912Z,7.57
2024-02-23T23:19:34.266Z,7.54
2024-02-23T23:24:42.735Z,7.56
2024-02-23T23:29:51.090Z,7.55
2024-02-23T23:34:59.692Z,7.56
2024-02-23T23:40:08.338Z,7.56
2024-02-23T23:45:17.423Z,7.56
2024-02-23T23:50:25.682Z,7.56
2024-02-23T23:55:34.214Z,7.56
